Seer Green, United Kingdom
Current Conditions -  °F | °C
As of 4:50 PM on Friday 21 Nov 2014 (Local Time) from EGWU Reporting Station
Moderate Rain Moderate Rain  
Wind Chill: 42°   Ceiling: 6000
Heat Index: 46°   Visibility: 2.5mi
Dew Point: 45°   Wind: 8mph
Humidity: 93%   Direction: 130°SE
Pressure: 29.97"   Gusts: NA
Location:  51.62°N, 0.61°W
Report Text: EGWU 211650Z 13007KT 4000 RA SCT012 OVC060 08/07 Q1015 TEMPO 5000 -RA
Loading
Personal Weather Stations






























Interactive Weather Map New forecast layout! Learn more

10-Day Weather Forecast

Advertisements
Track Severe Weather on mobile